createdAt,value
2022-12-31T00:00:51.136Z,67.12
2022-12-31T00:03:19.459Z,67.24
2022-12-31T00:05:49.248Z,67.20
2022-12-31T00:08:17.379Z,66.66
2022-12-31T00:10:45.624Z,65.71
2022-12-31T00:13:14.499Z,65.32
2022-12-31T00:15:43.823Z,65.16
2022-12-31T00:18:12.711Z,65.07
2022-12-31T00:20:42.286Z,64.85
2022-12-31T00:23:12.563Z,64.61
2022-12-31T00:25:40.619Z,64.74
2022-12-31T00:28:08.781Z,64.27
2022-12-31T00:30:36.987Z,63.93
2022-12-31T00:33:05.154Z,64.01
2022-12-31T00:35:34.749Z,63.34
2022-12-31T00:38:02.861Z,62.78
2022-12-31T00:40:32.401Z,62.66
2022-12-31T00:43:00.494Z,61.90
2022-12-31T00:45:28.700Z,61.66
2022-12-31T00:47:56.899Z,61.55
2022-12-31T00:50:24.990Z,61.02
2022-12-31T00:52:53.049Z,61.73
2022-12-31T00:55:22.235Z,62.06
2022-12-31T00:57:51.761Z,61.58
2022-12-31T01:00:20.045Z,61.26
2022-12-31T01:02:48.352Z,61.99
2022-12-31T01:05:16.717Z,61.71
2022-12-31T01:07:44.866Z,61.01
2022-12-31T01:10:13.009Z,60.79
2022-12-31T01:12:41.109Z,60.32
2022-12-31T01:15:11.929Z,60.24
2022-12-31T01:17:40.016Z,60.16
2022-12-31T01:20:09.156Z,60.38
2022-12-31T01:22:37.576Z,60.45
2022-12-31T01:25:06.586Z,60.06
2022-12-31T01:27:35.123Z,59.52
2022-12-31T01:30:03.362Z,59.78
2022-12-31T01:32:33.035Z,60.07
2022-12-31T01:35:01.216Z,59.59
2022-12-31T01:37:29.715Z,59.45
2022-12-31T01:39:57.955Z,59.39
2022-12-31T01:42:26.052Z,59.32
2022-12-31T01:44:56.013Z,59.22
2022-12-31T01:47:37.238Z,59.19
2022-12-31T01:50:11.588Z,59.78
2022-12-31T01:52:42.957Z,59.32
2022-12-31T01:55:22.800Z,59.48
2022-12-31T01:57:56.257Z,59.72
2022-12-31T02:00:24.476Z,59.93
2022-12-31T02:02:54.389Z,60.09
2022-12-31T02:05:27.772Z,60.33
2022-12-31T02:07:56.140Z,60.94
2022-12-31T02:10:24.420Z,61.11
2022-12-31T02:12:53.433Z,61.50
2022-12-31T02:15:30.005Z,61.59
2022-12-31T02:18:10.359Z,61.28
2022-12-31T02:21:02.645Z,61.21
2022-12-31T02:23:55.573Z,61.30
2022-12-31T02:26:51.244Z,61.14
2022-12-31T02:29:58.425Z,61.03
2022-12-31T02:32:37.925Z,61.45
2022-12-31T02:35:12.178Z,61.49
2022-12-31T02:37:43.367Z,61.34
2022-12-31T02:40:15.696Z,61.80
2022-12-31T02:42:43.871Z,61.00
2022-12-31T02:45:15.211Z,61.61
2022-12-31T02:47:59.009Z,61.71
2022-12-31T02:50:37.952Z,62.19
2022-12-31T02:53:23.004Z,62.36
2022-12-31T02:55:56.782Z,62.18
2022-12-31T02:58:48.466Z,62.14
2022-12-31T03:01:38.828Z,61.97
2022-12-31T03:04:22.323Z,62.67
2022-12-31T03:06:51.459Z,63.18
2022-12-31T03:09:19.670Z,63.62
2022-12-31T03:12:05.429Z,64.29
2022-12-31T03:14:33.551Z,64.64
2022-12-31T03:17:01.831Z,64.90
2022-12-31T03:19:48.897Z,65.50
2022-12-31T03:22:29.057Z,65.27
2022-12-31T03:25:17.272Z,65.55
2022-12-31T03:27:45.697Z,66.65
2022-12-31T03:30:15.419Z,68.25
2022-12-31T03:32:44.746Z,71.60
2022-12-31T03:35:15.656Z,73.30
2022-12-31T03:37:44.527Z,74.02
2022-12-31T03:40:15.472Z,73.97
2022-12-31T03:42:43.733Z,73.65
2022-12-31T03:45:13.268Z,74.00
2022-12-31T03:47:41.437Z,74.49
2022-12-31T03:50:11.596Z,74.53
2022-12-31T03:52:41.365Z,74.59
2022-12-31T03:55:10.846Z,74.74
2022-12-31T03:57:39.751Z,74.89
2022-12-31T04:00:10.477Z,74.83
2022-12-31T04:02:38.717Z,74.24
2022-12-31T04:05:08.467Z,73.85
2022-12-31T04:07:36.928Z,73.80
2022-12-31T04:10:08.397Z,73.66
2022-12-31T04:12:36.569Z,73.59
2022-12-31T04:15:05.402Z,74.10
2022-12-31T04:17:33.872Z,74.84
2022-12-31T04:20:01.991Z,75.08
2022-12-31T04:22:30.092Z,74.99
2022-12-31T04:24:58.205Z,74.98
2022-12-31T04:27:27.852Z,74.20
2022-12-31T04:29:56.017Z,74.50
2022-12-31T04:32:24.190Z,76.09
2022-12-31T04:34:52.337Z,76.06
2022-12-31T04:37:20.479Z,76.68
2022-12-31T04:39:48.556Z,77.38
2022-12-31T04:42:16.642Z,78.15
2022-12-31T04:44:46.241Z,78.58
2022-12-31T04:47:18.692Z,78.83
2022-12-31T04:49:49.930Z,79.16
2022-12-31T04:52:18.126Z,79.41
2022-12-31T04:54:46.264Z,79.29
2022-12-31T04:57:14.391Z,79.08
2022-12-31T04:59:42.521Z,79.07
2022-12-31T05:02:12.109Z,78.93
2022-12-31T05:04:41.519Z,78.59
2022-12-31T05:07:09.660Z,78.61
2022-12-31T05:09:37.768Z,77.97
2022-12-31T05:12:06.398Z,78.34
2022-12-31T05:14:34.639Z,78.27
2022-12-31T05:17:02.797Z,78.32
2022-12-31T05:19:32.380Z,77.42
2022-12-31T05:22:18.004Z,77.50
2022-12-31T05:24:46.187Z,78.14
2022-12-31T05:27:14.316Z,77.88
2022-12-31T05:29:42.432Z,78.19
2022-12-31T05:32:10.512Z,77.79
2022-12-31T05:34:40.384Z,77.78
2022-12-31T05:37:08.443Z,77.32
2022-12-31T05:39:36.655Z,77.39
2022-12-31T05:42:04.988Z,77.40
2022-12-31T05:44:33.255Z,78.40
2022-12-31T05:47:01.328Z,78.88
2022-12-31T05:49:29.465Z,78.74
2022-12-31T05:51:59.193Z,78.64
2022-12-31T05:54:27.375Z,79.29
2022-12-31T05:56:55.555Z,78.99
2022-12-31T05:59:23.696Z,78.91
2022-12-31T06:01:52.175Z,78.26
2022-12-31T06:04:20.396Z,77.96
2022-12-31T06:06:48.539Z,77.74
2022-12-31T06:09:19.054Z,77.25
2022-12-31T06:11:47.171Z,77.32
2022-12-31T06:14:15.943Z,77.24
2022-12-31T06:16:44.368Z,76.93
2022-12-31T06:19:12.534Z,76.70
2022-12-31T06:21:40.634Z,76.74
2022-12-31T06:24:09.301Z,76.52
2022-12-31T06:26:38.876Z,75.81
2022-12-31T06:29:07.085Z,75.85
2022-12-31T06:31:35.221Z,75.98
2022-12-31T06:34:03.495Z,76.21
2022-12-31T06:36:31.707Z,75.30
2022-12-31T06:38:59.847Z,74.21
2022-12-31T06:41:27.907Z,72.58
2022-12-31T06:43:57.369Z,72.14
2022-12-31T06:46:25.643Z,70.78
2022-12-31T06:48:53.900Z,70.98
2022-12-31T06:51:23.283Z,71.85
2022-12-31T06:53:52.795Z,72.14
2022-12-31T06:56:26.511Z,73.64
2022-12-31T06:58:59.805Z,74.71
2022-12-31T07:01:45.182Z,75.69
2022-12-31T07:04:46.112Z,75.70
2022-12-31T07:07:19.510Z,74.33
2022-12-31T07:09:57.183Z,74.23
2022-12-31T07:12:40.461Z,73.12
2022-12-31T07:15:15.793Z,73.94
2022-12-31T07:17:54.135Z,75.37
2022-12-31T07:20:23.116Z,75.52
2022-12-31T07:22:51.799Z,76.02
2022-12-31T07:25:22.072Z,75.97
2022-12-31T07:28:04.857Z,75.73
2022-12-31T07:30:41.942Z,75.42
2022-12-31T07:33:26.893Z,74.77
2022-12-31T07:36:05.634Z,74.79
2022-12-31T07:38:42.287Z,73.33
2022-12-31T07:41:19.055Z,72.03
2022-12-31T07:43:57.571Z,68.34
2022-12-31T07:46:36.923Z,64.00
2022-12-31T07:49:05.619Z,61.91
2022-12-31T07:51:34.346Z,60.54
2022-12-31T07:54:02.521Z,60.08
2022-12-31T07:56:31.725Z,58.65
2022-12-31T07:59:09.337Z,58.02
2022-12-31T08:01:48.609Z,57.70
2022-12-31T08:04:26.328Z,57.42
2022-12-31T08:07:03.876Z,56.95
2022-12-31T08:09:46.631Z,56.50
2022-12-31T08:12:15.732Z,56.19
2022-12-31T08:14:48.352Z,55.96
2022-12-31T08:17:20.425Z,56.13
2022-12-31T08:19:49.217Z,56.68
2022-12-31T08:22:36.082Z,56.85
2022-12-31T08:25:17.884Z,57.60
2022-12-31T08:27:57.047Z,57.81
2022-12-31T08:30:37.895Z,57.64
2022-12-31T08:33:15.742Z,57.56
2022-12-31T08:36:01.241Z,57.37
2022-12-31T08:38:35.624Z,56.88
2022-12-31T08:41:14.786Z,56.93
2022-12-31T08:43:50.938Z,57.01
2022-12-31T08:46:26.113Z,56.90
2022-12-31T08:48:56.119Z,56.83
2022-12-31T08:51:26.706Z,55.60
2022-12-31T08:53:56.292Z,55.29
2022-12-31T08:56:29.850Z,55.24
2022-12-31T08:59:13.788Z,54.93
2022-12-31T09:01:58.540Z,54.01
2022-12-31T09:04:40.970Z,54.33
2022-12-31T09:07:09.814Z,53.99
2022-12-31T09:09:48.753Z,53.04
2022-12-31T09:12:26.742Z,52.69
2022-12-31T09:15:02.040Z,52.12
2022-12-31T09:17:46.917Z,51.88
2022-12-31T09:20:22.297Z,52.07
2022-12-31T09:22:50.978Z,51.71
2022-12-31T09:25:21.946Z,51.60
2022-12-31T09:28:06.849Z,51.53
2022-12-31T09:30:43.490Z,51.88
2022-12-31T09:33:17.870Z,51.70
2022-12-31T09:35:54.521Z,51.91
2022-12-31T09:38:29.293Z,51.38
2022-12-31T09:41:29.455Z,51.50
2022-12-31T09:44:36.181Z,50.98
2022-12-31T09:47:43.286Z,50.98
2022-12-31T09:50:42.391Z,50.63
2022-12-31T09:53:48.110Z,50.53
2022-12-31T09:56:24.225Z,50.19
2022-12-31T09:59:01.965Z,50.58
2022-12-31T10:01:44.811Z,49.78
2022-12-31T10:04:39.843Z,49.54
2022-12-31T10:07:24.814Z,49.10
2022-12-31T10:10:14.597Z,48.68
2022-12-31T10:12:56.314Z,48.50
2022-12-31T10:16:06.773Z,47.90
2022-12-31T10:18:50.562Z,47.92
2022-12-31T10:21:33.160Z,47.58
2022-12-31T10:24:24.830Z,47.03
2022-12-31T10:27:18.342Z,46.54
2022-12-31T10:29:48.969Z,46.82
2022-12-31T10:32:26.317Z,46.51
2022-12-31T10:35:11.257Z,46.58
2022-12-31T10:37:49.545Z,46.46
2022-12-31T10:40:31.185Z,46.04
2022-12-31T10:43:48.047Z,46.49
2022-12-31T10:46:52.821Z,46.59
2022-12-31T10:49:58.802Z,46.57
2022-12-31T10:53:18.208Z,46.34
2022-12-31T10:56:09.824Z,46.92
2022-12-31T10:59:03.276Z,47.34
2022-12-31T11:01:43.581Z,46.77
2022-12-31T11:04:59.861Z,47.33
2022-12-31T11:07:40.709Z,47.62
2022-12-31T11:10:50.506Z,47.69
2022-12-31T11:14:03.365Z,48.00
2022-12-31T11:17:02.419Z,47.84
2022-12-31T11:19:38.499Z,48.25
2022-12-31T11:22:23.416Z,48.96
2022-12-31T11:25:21.619Z,49.17
2022-12-31T11:28:07.974Z,49.13
2022-12-31T11:30:47.730Z,49.15
2022-12-31T11:33:33.434Z,49.42
2022-12-31T11:36:15.237Z,48.49
2022-12-31T11:38:52.506Z,49.36
2022-12-31T11:41:30.094Z,48.82
2022-12-31T11:44:19.378Z,49.46
2022-12-31T11:47:08.899Z,49.33
2022-12-31T11:50:04.659Z,49.55
2022-12-31T11:52:56.118Z,49.11
2022-12-31T11:55:34.151Z,49.36
2022-12-31T11:58:14.743Z,48.67
2022-12-31T12:00:50.796Z,49.43
2022-12-31T12:03:18.928Z,49.28
2022-12-31T12:05:47.056Z,49.05
2022-12-31T12:08:15.960Z,49.04
2022-12-31T12:10:47.623Z,48.76
2022-12-31T12:13:23.834Z,52.45
2022-12-31T12:15:54.249Z,54.44
2022-12-31T12:18:31.670Z,54.86
2022-12-31T12:21:09.573Z,55.91
2022-12-31T12:23:37.904Z,56.29
2022-12-31T12:26:06.952Z,57.96
2022-12-31T12:28:46.837Z,60.84
2022-12-31T12:31:21.988Z,62.26
2022-12-31T12:33:52.208Z,62.57
2022-12-31T12:36:21.797Z,63.43
2022-12-31T12:39:01.096Z,65.06
2022-12-31T12:41:29.224Z,66.01
2022-12-31T12:44:07.331Z,65.93
2022-12-31T12:46:44.658Z,64.06
2022-12-31T12:49:23.884Z,64.01
2022-12-31T12:52:10.367Z,60.73
2022-12-31T12:54:56.002Z,60.71
2022-12-31T12:57:30.764Z,59.73
2022-12-31T13:00:19.059Z,59.93
2022-12-31T13:03:11.361Z,61.21
2022-12-31T13:05:59.559Z,61.55
2022-12-31T13:08:38.969Z,63.53
2022-12-31T13:11:21.891Z,66.66
2022-12-31T13:14:07.836Z,68.88
2022-12-31T13:16:44.255Z,71.13
2022-12-31T13:19:18.318Z,74.55
2022-12-31T13:21:57.045Z,77.43
2022-12-31T13:24:40.942Z,78.67
2022-12-31T13:27:15.477Z,79.83
2022-12-31T13:29:46.352Z,82.07
2022-12-31T13:32:20.610Z,82.97
2022-12-31T13:34:53.110Z,85.02
2022-12-31T13:37:28.787Z,85.91
2022-12-31T13:40:03.031Z,87.04
2022-12-31T13:42:40.595Z,87.73
2022-12-31T13:45:15.115Z,88.28
2022-12-31T13:47:49.695Z,89.36
2022-12-31T13:50:23.649Z,89.96
2022-12-31T13:52:58.377Z,91.10
2022-12-31T13:55:31.411Z,92.58
2022-12-31T13:58:06.436Z,92.57
2022-12-31T14:00:39.890Z,93.24
2022-12-31T14:03:15.304Z,93.91
2022-12-31T14:05:54.557Z,95.39
2022-12-31T14:08:22.815Z,96.02
2022-12-31T14:11:02.669Z,96.61
2022-12-31T14:13:42.736Z,97.05
2022-12-31T14:16:20.739Z,98.49
2022-12-31T14:19:00.928Z,100.00
2022-12-31T14:21:33.236Z,100.00
2022-12-31T14:24:11.351Z,100.00
2022-12-31T14:26:44.280Z,100.00
2022-12-31T14:29:33.254Z,100.00
2022-12-31T14:32:31.393Z,100.00
2022-12-31T14:35:18.163Z,100.00
2022-12-31T14:37:52.719Z,100.00
2022-12-31T14:40:28.094Z,100.00
2022-12-31T14:43:08.602Z,100.00
2022-12-31T14:45:48.390Z,100.00
2022-12-31T14:48:27.121Z,100.00
2022-12-31T14:50:57.245Z,100.00
2022-12-31T14:53:27.161Z,100.00
2022-12-31T14:56:01.091Z,100.00
2022-12-31T14:58:34.880Z,100.00
2022-12-31T15:01:08.866Z,100.00
2022-12-31T15:03:45.382Z,100.00
2022-12-31T15:06:39.838Z,100.00
2022-12-31T15:09:19.145Z,100.00
2022-12-31T15:12:05.441Z,100.00
2022-12-31T15:15:01.012Z,100.00
2022-12-31T15:17:41.656Z,100.00
2022-12-31T15:20:48.110Z,100.00
2022-12-31T15:23:22.966Z,100.00
2022-12-31T15:25:55.685Z,99.43
2022-12-31T15:28:33.395Z,98.64
2022-12-31T15:31:14.412Z,97.54
2022-12-31T15:33:56.741Z,97.42
2022-12-31T15:36:26.965Z,95.69
2022-12-31T15:42:35.616Z,92.56
2022-12-31T15:44:49.827Z,91.18
2022-12-31T15:47:25.271Z,91.00
2022-12-31T15:49:55.861Z,89.63
2022-12-31T15:52:31.031Z,88.57
2022-12-31T15:54:59.763Z,89.07
2022-12-31T15:57:35.149Z,90.02
2022-12-31T16:00:07.983Z,89.16
2022-12-31T16:02:39.187Z,88.51
2022-12-31T16:05:08.110Z,88.18
2022-12-31T16:07:36.502Z,87.76
2022-12-31T16:10:06.816Z,87.59
2022-12-31T16:12:44.432Z,88.40
2022-12-31T16:15:23.102Z,88.94
2022-12-31T16:18:01.565Z,88.00
2022-12-31T16:20:32.907Z,87.11
2022-12-31T16:23:03.132Z,86.00
2022-12-31T16:25:34.031Z,85.15
2022-12-31T16:28:04.958Z,84.76
2022-12-31T16:30:35.934Z,84.43
2022-12-31T16:33:06.718Z,85.19
2022-12-31T16:35:37.557Z,84.59
2022-12-31T16:38:14.070Z,85.38
2022-12-31T16:40:43.938Z,83.42
2022-12-31T16:43:29.004Z,82.77
2022-12-31T16:45:59.331Z,82.43
2022-12-31T16:48:27.952Z,81.82
2022-12-31T16:50:57.499Z,82.50
2022-12-31T16:53:29.921Z,82.22
2022-12-31T16:56:02.857Z,81.40
2022-12-31T16:58:34.711Z,81.42
2022-12-31T17:01:15.445Z,80.69
2022-12-31T17:03:46.943Z,80.66
2022-12-31T17:06:17.731Z,81.14
2022-12-31T17:08:49.646Z,81.65
2022-12-31T17:11:29.945Z,82.64
2022-12-31T17:14:07.820Z,82.72
2022-12-31T17:16:38.034Z,81.47
2022-12-31T17:19:06.422Z,80.84
2022-12-31T17:21:34.832Z,80.29
2022-12-31T17:24:07.101Z,79.99
2022-12-31T17:26:38.635Z,78.51
2022-12-31T17:29:08.183Z,78.49
2022-12-31T17:31:38.283Z,78.96
2022-12-31T17:34:24.823Z,78.67
2022-12-31T17:37:00.137Z,78.86
2022-12-31T17:39:40.059Z,78.28
2022-12-31T17:42:10.993Z,78.86
2022-12-31T17:44:43.666Z,80.20
2022-12-31T17:47:15.083Z,81.20
2022-12-31T17:49:47.105Z,82.18
2022-12-31T17:52:16.710Z,83.00
2022-12-31T17:54:44.866Z,84.54
2022-12-31T17:57:27.608Z,84.47
2022-12-31T17:59:57.800Z,84.56
2022-12-31T18:02:26.122Z,84.90
2022-12-31T18:04:54.326Z,85.54
2022-12-31T18:07:22.593Z,85.96
2022-12-31T18:09:50.722Z,85.99
2022-12-31T18:12:20.345Z,86.30
2022-12-31T18:14:48.496Z,86.40
2022-12-31T18:17:18.099Z,86.79
2022-12-31T18:20:04.151Z,86.40
2022-12-31T18:22:33.408Z,85.67
2022-12-31T18:25:01.852Z,86.06
2022-12-31T18:27:30.784Z,86.93
2022-12-31T18:30:04.546Z,87.38
2022-12-31T18:32:35.504Z,87.57
2022-12-31T18:35:03.653Z,87.69
2022-12-31T18:37:34.130Z,87.66
2022-12-31T18:40:02.286Z,87.18
2022-12-31T18:42:30.721Z,87.12
2022-12-31T18:44:58.843Z,87.12
2022-12-31T18:47:27.006Z,86.79
2022-12-31T18:49:56.534Z,86.83
2022-12-31T18:52:25.178Z,87.24
2022-12-31T18:54:53.356Z,88.53
2022-12-31T18:57:21.553Z,89.37
2022-12-31T18:59:49.739Z,89.38
2022-12-31T19:02:20.592Z,89.15
2022-12-31T19:04:48.879Z,88.94
2022-12-31T19:07:18.411Z,88.98
2022-12-31T19:09:48.311Z,88.66
2022-12-31T19:12:18.304Z,89.88
2022-12-31T19:14:46.378Z,90.89
2022-12-31T19:17:14.536Z,91.13
2022-12-31T19:19:42.666Z,90.92
2022-12-31T19:22:16.298Z,90.81
2022-12-31T19:24:46.142Z,91.16
2022-12-31T19:27:14.919Z,89.23
2022-12-31T19:29:43.092Z,86.94
2022-12-31T19:32:11.418Z,85.42
2022-12-31T19:34:39.593Z,84.67
2022-12-31T19:37:07.757Z,84.13
2022-12-31T19:39:35.832Z,83.44
2022-12-31T19:42:05.821Z,82.48
2022-12-31T19:44:34.030Z,83.04
2022-12-31T19:47:02.156Z,84.92
2022-12-31T19:49:30.331Z,86.29
2022-12-31T19:51:58.497Z,87.99
2022-12-31T19:54:26.645Z,89.47
2022-12-31T19:56:54.800Z,89.96
2022-12-31T19:59:24.314Z,89.42
2022-12-31T20:01:53.417Z,89.61
2022-12-31T20:04:21.839Z,89.18
2022-12-31T20:06:50.034Z,86.64
2022-12-31T20:09:18.278Z,84.09
2022-12-31T20:11:46.648Z,83.54
2022-12-31T20:14:14.797Z,82.99
2022-12-31T20:16:44.463Z,83.18
2022-12-31T20:19:12.739Z,82.34
2022-12-31T20:21:42.009Z,81.69
2022-12-31T20:24:10.182Z,81.52
2022-12-31T20:26:38.852Z,81.40
2022-12-31T20:29:06.969Z,81.44
2022-12-31T20:31:35.075Z,80.62
2022-12-31T20:34:06.052Z,80.06
2022-12-31T20:36:34.175Z,79.98
2022-12-31T20:39:02.333Z,80.52
2022-12-31T20:41:32.226Z,80.49
2022-12-31T20:44:00.459Z,80.51
2022-12-31T20:46:31.157Z,80.85
2022-12-31T20:49:01.245Z,81.41
2022-12-31T20:51:32.708Z,81.21
2022-12-31T20:54:02.726Z,81.15
2022-12-31T20:56:33.218Z,80.72
2022-12-31T20:59:02.161Z,80.89
2022-12-31T21:01:55.180Z,80.89
2022-12-31T21:04:19.106Z,81.57
2022-12-31T21:06:49.263Z,82.33
2022-12-31T21:09:17.374Z,82.39
2022-12-31T21:12:02.841Z,82.84
2022-12-31T21:14:30.940Z,83.28
2022-12-31T21:16:59.062Z,83.60
2022-12-31T21:19:27.160Z,84.05
2022-12-31T21:21:56.670Z,84.03
2022-12-31T21:24:24.787Z,84.07
2022-12-31T21:26:55.782Z,84.20
2022-12-31T21:29:24.456Z,84.23
2022-12-31T21:31:52.582Z,84.26
2022-12-31T21:34:20.709Z,84.16
2022-12-31T21:36:48.860Z,84.24
2022-12-31T21:39:18.403Z,83.81
2022-12-31T21:41:52.325Z,83.59
2022-12-31T21:44:21.486Z,84.30
2022-12-31T21:47:25.106Z,84.21
2022-12-31T21:49:38.142Z,84.03
2022-12-31T21:52:23.938Z,85.03
2022-12-31T21:55:10.980Z,85.03
2022-12-31T21:58:07.191Z,84.69
2022-12-31T22:00:53.306Z,84.68
2022-12-31T22:03:28.531Z,84.78
2022-12-31T22:06:00.049Z,85.09
2022-12-31T22:08:29.562Z,85.21
2022-12-31T22:10:59.340Z,84.62
2022-12-31T22:13:27.645Z,84.66
2022-12-31T22:16:04.234Z,85.14
2022-12-31T22:18:35.135Z,85.89
2022-12-31T22:21:05.321Z,85.87
2022-12-31T22:23:34.447Z,86.05
2022-12-31T22:26:05.238Z,86.41
2022-12-31T22:28:38.826Z,86.42
2022-12-31T22:31:08.294Z,86.20
2022-12-31T22:33:36.648Z,85.80
2022-12-31T22:36:07.095Z,85.52
2022-12-31T22:38:35.957Z,85.16
2022-12-31T22:41:08.114Z,84.26
2022-12-31T22:43:38.931Z,82.04
2022-12-31T22:46:08.786Z,81.33
2022-12-31T22:48:37.220Z,80.53
2022-12-31T22:51:05.682Z,80.42
2022-12-31T22:53:34.287Z,81.08
2022-12-31T22:56:02.455Z,81.68
2022-12-31T22:58:31.959Z,81.47
2022-12-31T23:01:00.156Z,81.54
2022-12-31T23:03:28.487Z,81.18
2022-12-31T23:05:56.611Z,80.98
2022-12-31T23:08:24.728Z,80.69
2022-12-31T23:10:59.943Z,80.68
2022-12-31T23:13:50.529Z,80.74
2022-12-31T23:16:38.696Z,79.73
2022-12-31T23:19:24.686Z,78.84
2022-12-31T23:22:11.234Z,78.64
2022-12-31T23:24:43.081Z,77.75
2022-12-31T23:27:12.110Z,77.15
2022-12-31T23:29:46.756Z,76.96
2022-12-31T23:32:17.994Z,76.47
2022-12-31T23:34:47.649Z,76.46
2022-12-31T23:37:15.937Z,76.35
2022-12-31T23:39:44.269Z,75.72
2022-12-31T23:42:12.782Z,75.79
2022-12-31T23:44:40.926Z,75.26
2022-12-31T23:47:09.246Z,74.59
2022-12-31T23:49:38.851Z,74.63
2022-12-31T23:52:07.116Z,74.25
2022-12-31T23:54:36.114Z,73.53
2022-12-31T23:57:04.244Z,73.80
2022-12-31T23:59:32.464Z,73.63
